Time;durP1;ratioP1;P1;durP2;ratioP2;P2;SDS_P1;SDS_P2;PMS_P1;PMS_P2;Temp;Humidity;BMP_temperature;BMP_pressure;BME280_temperature;BME280_humidity;BME280_pressure;Samples;Min_cycle;Max_cycle;Signal;HPM_P1;HPM_P2
2021/04/14 00:01:51;;;;;;;3.08;2.88;;;6.40;99.90;;;;;;5073462;28;20032;-77
2021/04/14 00:04:17;;;;;;;3.08;2.88;;;6.30;99.90;;;;;;5072264;28;20032;-77
2021/04/14 00:06:43;;;;;;;3.28;3.08;;;6.30;99.90;;;;;;5071650;28;20047;-77
2021/04/14 00:09:09;;;;;;;3.33;2.65;;;6.20;99.90;;;;;;5073506;28;20470;-77
2021/04/14 00:11:35;;;;;;;3.30;2.65;;;6.30;99.90;;;;;;5073415;28;20032;-77
2021/04/14 00:14:01;;;;;;;2.70;2.50;;;6.30;99.90;;;;;;5071887;28;20029;-77
2021/04/14 00:16:27;;;;;;;3.72;2.53;;;6.40;99.90;;;;;;5073549;28;20112;-78
2021/04/14 00:18:53;;;;;;;1.88;1.73;;;6.40;99.90;;;;;;5072167;28;20498;-77
2021/04/14 00:21:22;;;;;;;3.60;1.90;;;6.40;99.90;;;;;;5073148;28;20501;-77
2021/04/14 00:23:48;;;;;;;2.03;1.90;;;6.40;99.90;;;;;;5072902;28;20371;-77
2021/04/14 00:26:15;;;;;;;2.35;1.92;;;6.30;99.90;;;;;;5073305;28;20052;-77
2021/04/14 00:28:41;;;;;;;2.30;2.08;;;6.30;99.90;;;;;;5072066;28;20446;-78
2021/04/14 00:31:08;;;;;;;2.38;2.17;;;6.20;99.90;;;;;;5073180;28;20016;-77
2021/04/14 00:33:35;;;;;;;3.13;2.28;;;6.20;99.90;;;;;;5073169;28;20486;-77
2021/04/14 00:36:01;;;;;;;3.38;1.88;;;6.10;99.90;;;;;;5071549;28;20028;-78
2021/04/14 00:38:26;;;;;;;1.95;1.73;;;6.10;99.90;;;;;;5073163;28;20406;-78
2021/04/14 00:41:07;;;;;;;2.10;2.00;;;6.10;99.90;;;;;;5072977;28;20020;-78
2021/04/14 00:43:35;;;;;;;2.70;2.50;;;6.00;99.90;;;;;;5073158;28;20035;-78
2021/04/14 00:46:01;;;;;;;3.40;2.20;;;6.00;99.90;;;;;;5073057;28;20099;-78
2021/04/14 00:48:27;;;;;;;2.53;2.33;;;6.00;99.90;;;;;;5071719;28;20120;-78
2021/04/14 00:50:54;;;;;;;2.72;2.53;;;6.00;99.90;;;;;;5072971;28;20032;-78
2021/04/14 00:53:20;;;;;;;2.25;2.15;;;6.00;99.90;;;;;;5072810;28;20494;-78
2021/04/14 00:55:46;;;;;;;1.98;1.88;;;5.90;99.90;;;;;;5073022;28;20024;-78
2021/04/14 00:58:13;;;;;;;2.67;2.47;;;5.90;99.90;;;;;;5065562;28;20024;-78
2021/04/14 01:00:40;;;;;;;2.88;2.67;;;5.80;99.90;;;;;;5052722;28;20021;-78
2021/04/14 01:03:11;;;;;;;3.20;3.00;;;5.60;99.90;;;;;;5051464;28;20084;-78
2021/04/14 01:05:37;;;;;;;3.00;2.53;;;5.70;99.90;;;;;;5052783;28;20475;-78
2021/04/14 01:08:06;;;;;;;7.45;4.28;;;5.50;99.90;;;;;;5052815;28;20032;-78
2021/04/14 01:10:32;;;;;;;3.38;3.10;;;5.50;99.90;;;;;;5051447;28;20521;-78
2021/04/14 01:12:59;;;;;;;3.10;2.78;;;5.50;99.90;;;;;;5052619;28;20103;-78
2021/04/14 01:15:33;;;;;;;2.20;2.10;;;5.50;99.90;;;;;;5052724;28;20082;-77
2021/04/14 01:17:59;;;;;;;2.22;2.10;;;5.60;99.90;;;;;;5052681;28;20391;-78
2021/04/14 01:20:26;;;;;;;2.17;2.08;;;5.60;99.90;;;;;;5054964;28;20029;-78
2021/04/14 01:22:52;;;;;;;2.40;2.30;;;5.60;99.90;;;;;;5065358;28;20103;-78
2021/04/14 01:25:21;;;;;;;2.30;2.20;;;5.70;99.90;;;;;;5090640;28;20194;-78
2021/04/14 01:27:47;;;;;;;2.47;2.28;;;5.70;99.90;;;;;;5072694;28;20033;-78
2021/04/14 01:30:20;;;;;;;4.25;2.75;;;5.70;99.90;;;;;;5055272;28;20036;-78
2021/04/14 01:32:45;;;;;;;2.53;2.33;;;5.70;99.90;;;;;;5064581;28;20025;-78
2021/04/14 01:35:12;;;;;;;2.17;2.08;;;5.70;99.90;;;;;;5076594;28;20033;-78
2021/04/14 01:37:39;;;;;;;2.40;2.20;;;5.70;99.90;;;;;;5074872;28;20063;-78
2021/04/14 01:40:05;;;;;;;2.13;2.00;;;5.80;99.90;;;;;;5076307;28;20044;-78
2021/04/14 01:42:31;;;;;;;2.28;1.77;;;5.70;99.90;;;;;;5076190;28;20029;-79
2021/04/14 01:44:57;;;;;;;2.35;2.05;;;5.70;99.90;;;;;;5074927;28;20039;-78
2021/04/14 01:47:22;;;;;;;2.47;1.65;;;5.70;99.90;;;;;;5074706;28;20033;-78
2021/04/14 01:49:48;;;;;;;1.88;1.77;;;5.60;99.90;;;;;;5076107;28;20029;-78
2021/04/14 01:52:14;;;;;;;2.30;2.20;;;5.70;99.90;;;;;;5076158;28;20025;-78
2021/04/14 01:54:39;;;;;;;2.50;1.60;;;5.70;99.90;;;;;;5074757;28;20025;-78
2021/04/14 01:57:06;;;;;;;1.77;1.67;;;5.70;99.90;;;;;;5075702;28;20384;-78
2021/04/14 01:59:32;;;;;;;2.80;1.45;;;5.60;99.90;;;;;;5056289;28;20475;-78
2021/04/14 02:01:58;;;;;;;1.80;1.70;;;5.70;99.90;;;;;;5055743;28;20074;-78
2021/04/14 02:04:23;;;;;;;1.85;1.40;;;5.60;99.90;;;;;;5075880;28;20044;-78
2021/04/14 02:06:49;;;;;;;1.52;1.42;;;5.60;99.90;;;;;;5075865;28;20056;-77
2021/04/14 02:09:15;;;;;;;1.52;1.42;;;5.60;99.90;;;;;;5075881;28;20027;-78
2021/04/14 02:11:41;;;;;;;1.50;1.40;;;5.50;99.90;;;;;;5075536;28;20478;-78
2021/04/14 02:14:09;;;;;;;3.53;1.70;;;5.40;99.90;;;;;;5075629;28;20039;-78
2021/04/14 02:16:36;;;;;;;1.40;1.40;;;5.30;99.90;;;;;;5075695;28;20032;-78
2021/04/14 02:19:01;;;;;;;1.88;1.77;;;5.30;99.90;;;;;;5074434;28;20062;-78
2021/04/14 02:21:27;;;;;;;1.40;1.30;;;5.20;99.90;;;;;;5075603;28;20090;-78
2021/04/14 02:23:53;;;;;;;1.20;1.20;;;5.20;99.90;;;;;;5075390;28;20053;-78
2021/04/14 02:26:21;;;;;;;1.48;1.38;;;5.30;99.90;;;;;;5074295;28;20025;-77
2021/04/14 02:28:48;;;;;;;1.67;1.48;;;5.20;99.90;;;;;;5074189;28;20020;-78
2021/04/14 02:31:16;;;;;;;1.58;1.48;;;5.20;99.90;;;;;;5075227;28;20025;-78
2021/04/14 02:33:42;;;;;;;1.73;1.63;;;5.20;99.90;;;;;;5075494;28;20436;-78
2021/04/14 02:36:08;;;;;;;1.52;1.40;;;5.10;99.90;;;;;;5075302;28;20052;-78
2021/04/14 02:38:35;;;;;;;1.45;1.45;;;5.10;99.90;;;;;;5075058;28;20107;-78
2021/04/14 02:41:02;;;;;;;1.70;1.60;;;5.10;99.90;;;;;;5075124;28;20032;-78
2021/04/14 02:43:28;;;;;;;4.32;1.40;;;5.10;99.90;;;;;;5075280;28;20025;-78
2021/04/14 02:45:54;;;;;;;2.78;1.50;;;5.10;99.90;;;;;;5074073;28;20203;-77
2021/04/14 02:48:20;;;;;;;2.15;1.15;;;5.10;99.90;;;;;;5074134;28;20027;-78
2021/04/14 02:50:45;;;;;;;1.33;1.23;;;5.00;99.90;;;;;;5075167;28;20055;-78
2021/04/14 02:53:11;;;;;;;1.70;1.60;;;5.00;99.90;;;;;;5073421;28;20032;-78
2021/04/14 02:55:38;;;;;;;3.13;1.38;;;5.00;99.90;;;;;;5073777;28;20028;-78
2021/04/14 02:58:04;;;;;;;1.30;1.20;;;5.00;99.90;;;;;;5067563;28;20036;-78
2021/04/14 03:00:30;;;;;;;1.33;1.30;;;5.00;99.90;;;;;;5057877;28;20036;-78
2021/04/14 03:02:58;;;;;;;1.50;1.40;;;4.90;99.90;;;;;;5073363;28;20449;-77
2021/04/14 03:05:28;;;;;;;1.92;1.75;;;4.90;99.90;;;;;;5074791;28;20020;-78
2021/04/14 03:07:55;;;;;;;1.60;1.50;;;4.70;99.90;;;;;;5073333;28;20012;-78
2021/04/14 03:10:22;;;;;;;2.10;2.00;;;4.80;99.90;;;;;;5074685;28;20470;-78
2021/04/14 03:12:48;;;;;;;1.98;1.88;;;5.00;99.10;;;;;;5073296;28;20115;-78
2021/04/14 03:15:15;;;;;;;1.92;1.83;;;5.20;97.80;;;;;;5073391;28;20024;-78
2021/04/14 03:17:42;;;;;;;1.90;1.80;;;5.10;98.00;;;;;;5074508;28;20497;-78
2021/04/14 03:20:09;;;;;;;3.08;2.22;;;5.20;96.50;;;;;;5074355;28;20078;-78
2021/04/14 03:22:35;;;;;;;2.05;1.95;;;5.50;88.60;;;;;;5073010;28;20083;-78
2021/04/14 03:25:02;;;;;;;2.95;2.20;;;5.60;87.80;;;;;;5074158;28;20075;-78
2021/04/14 03:27:28;;;;;;;2.25;2.15;;;5.80;80.50;;;;;;5071848;28;20031;-78
2021/04/14 03:29:53;;;;;;;2.55;2.35;;;6.00;79.50;;;;;;5054432;28;20021;-78
2021/04/14 03:32:19;;;;;;;3.35;2.20;;;6.00;79.10;;;;;;5054274;28;20013;-78
2021/04/14 03:34:45;;;;;;;2.30;2.10;;;6.20;73.50;;;;;;5054193;28;20040;-78
2021/04/14 03:37:10;;;;;;;2.30;2.20;;;6.30;70.20;;;;;;5052996;28;20025;-78
2021/04/14 03:39:37;;;;;;;2.15;2.00;;;6.40;71.50;;;;;;5054022;28;20566;-78
2021/04/14 03:42:03;;;;;;;2.67;2.47;;;6.40;69.40;;;;;;5053400;28;20020;-78
2021/04/14 03:44:35;;;;;;;2.17;2.08;;;6.50;67.30;;;;;;5054001;28;20021;-77
2021/04/14 03:47:01;;;;;;;;;;;6.50;66.20;;;;;;5053111;28;20028;-77
2021/04/14 03:49:27;;;;;;;2.22;2.13;;;6.60;64.90;;;;;;5086164;28;19912;-77
2021/04/14 03:51:53;;;;;;;3.10;2.90;;;6.70;63.20;;;;;;5053867;28;20028;-77
2021/04/14 03:54:19;;;;;;;2.25;2.15;;;6.80;61.00;;;;;;5068524;28;20020;-78
2021/04/14 03:56:45;;;;;;;2.80;2.60;;;6.80;61.10;;;;;;5073742;28;20028;-77
2021/04/14 03:59:12;;;;;;;1.90;1.80;;;6.80;59.50;;;;;;5070860;28;20449;-78
2021/04/14 04:01:37;;;;;;;2.95;2.75;;;6.90;59.40;;;;;;5071103;28;20505;-78
2021/04/14 04:04:03;;;;;;;3.33;2.20;;;6.90;58.80;;;;;;5070815;28;20025;-78
2021/04/14 04:06:29;;;;;;;2.67;2.47;;;6.90;59.10;;;;;;5072405;28;20029;-77
2021/04/14 04:08:55;;;;;;;3.28;2.45;;;6.90;58.00;;;;;;5071100;28;20057;-78
2021/04/14 04:11:23;;;;;;;2.30;2.10;;;7.00;57.60;;;;;;5072115;28;20494;-77
2021/04/14 04:13:51;;;;;;;2.40;2.20;;;7.00;55.70;;;;;;5071820;28;20067;-78
2021/04/14 04:16:16;;;;;;;2.45;2.35;;;7.00;57.40;;;;;;5073367;28;20020;-77
2021/04/14 04:18:42;;;;;;;2.50;2.30;;;7.10;55.10;;;;;;5073419;28;20367;-78
2021/04/14 04:21:09;;;;;;;2.40;2.20;;;7.10;55.70;;;;;;5073201;28;20383;-77
2021/04/14 04:23:35;;;;;;;2.55;2.35;;;7.10;54.50;;;;;;5072904;28;20031;-77
2021/04/14 04:26:01;;;;;;;2.58;2.38;;;7.10;54.00;;;;;;5072831;28;20036;-77
2021/04/14 04:28:27;;;;;;;2.67;2.53;;;7.20;54.10;;;;;;5065327;28;20032;-77
2021/04/14 04:30:53;;;;;;;2.10;2.00;;;7.10;54.90;;;;;;5073062;28;20029;-77
2021/04/14 04:33:21;;;;;;;2.30;2.20;;;7.20;53.70;;;;;;5071478;28;20024;-78
2021/04/14 04:35:47;;;;;;;1.95;1.85;;;7.20;53.60;;;;;;5071763;28;20044;-77
2021/04/14 04:38:12;;;;;;;2.47;2.38;;;7.20;51.30;;;;;;5071920;28;20066;-77
2021/04/14 04:40:38;;;;;;;2.20;2.10;;;7.20;51.90;;;;;;5071374;28;20047;-77
2021/04/14 04:43:04;;;;;;;2.80;2.60;;;7.30;52.20;;;;;;5072837;28;20070;-77
2021/04/14 04:45:32;;;;;;;2.22;2.13;;;7.30;52.80;;;;;;5072979;28;20028;-77
2021/04/14 04:47:58;;;;;;;2.50;2.40;;;7.20;51.70;;;;;;5073126;28;20036;-77
2021/04/14 04:50:28;;;;;;;2.08;1.98;;;7.30;51.10;;;;;;5071886;28;20053;-77
2021/04/14 04:52:55;;;;;;;2.67;2.00;;;7.30;51.50;;;;;;5070991;28;20029;-77
2021/04/14 04:55:22;;;;;;;2.35;2.25;;;7.30;50.60;;;;;;5072658;28;20032;-77
2021/04/14 04:57:48;;;;;;;3.17;2.00;;;7.30;51.10;;;;;;5072951;28;20033;-77
2021/04/14 05:00:14;;;;;;;2.60;2.45;;;7.30;50.10;;;;;;5072661;28;20033;-77
2021/04/14 05:02:40;;;;;;;4.15;3.75;;;7.30;50.40;;;;;;5071212;28;20021;-77
2021/04/14 05:05:27;;;;;;;5.60;2.50;;;7.40;50.30;;;;;;5071214;28;20474;-77
2021/04/14 05:07:53;;;;;;;2.47;2.28;;;7.40;49.80;;;;;;5069960;28;20647;-77
2021/04/14 05:10:20;;;;;;;2.67;2.47;;;7.40;49.50;;;;;;5072788;28;20027;-77
2021/04/14 05:12:52;;;;;;;3.45;3.13;;;7.40;49.00;;;;;;5071388;28;20090;-78
2021/04/14 05:15:25;;;;;;;2.92;2.55;;;7.40;49.40;;;;;;5072913;28;20024;-77
2021/04/14 05:17:51;;;;;;;4.10;2.47;;;7.40;49.30;;;;;;5071539;28;20025;-77
2021/04/14 05:20:18;;;;;;;2.85;2.65;;;7.50;48.40;;;;;;5072426;28;20493;-77
2021/04/14 05:22:45;;;;;;;2.45;2.33;;;7.50;48.10;;;;;;5072579;28;20120;-77
2021/04/14 05:25:11;;;;;;;3.85;2.42;;;7.50;47.30;;;;;;5072250;28;20044;-77
2021/04/14 05:27:38;;;;;;;7.45;3.88;;;7.50;48.80;;;;;;5071298;28;20502;-77
2021/04/14 05:30:05;;;;;;;2.92;2.53;;;7.50;47.50;;;;;;5071815;28;20486;-76
2021/04/14 05:32:32;;;;;;;2.08;1.98;;;7.50;48.10;;;;;;5071775;28;20523;-76
2021/04/14 05:34:57;;;;;;;2.08;1.98;;;7.60;47.40;;;;;;5072036;28;20035;-76
2021/04/14 05:37:23;;;;;;;2.30;2.10;;;7.60;47.60;;;;;;5071723;28;20021;-76
2021/04/14 05:39:49;;;;;;;3.63;3.42;;;7.60;48.00;;;;;;5070095;28;20497;-76
2021/04/14 05:42:14;;;;;;;3.25;2.83;;;7.70;48.00;;;;;;5070510;28;20029;-76
2021/04/14 05:44:40;;;;;;;2.70;2.50;;;7.70;48.30;;;;;;5070476;28;20481;-76
2021/04/14 05:47:06;;;;;;;2.10;2.00;;;7.70;48.80;;;;;;5071470;28;20024;-76
2021/04/14 05:49:31;;;;;;;3.42;3.00;;;7.80;47.70;;;;;;5070528;28;20025;-76
2021/04/14 05:51:58;;;;;;;3.00;2.35;;;7.80;48.70;;;;;;5071901;28;20029;-76
2021/04/14 05:54:23;;;;;;;4.88;3.90;;;7.80;47.90;;;;;;5071237;28;20395;-76
2021/04/14 05:56:49;;;;;;;3.97;3.60;;;7.90;47.70;;;;;;5072083;28;20035;-76
2021/04/14 05:59:15;;;;;;;2.40;2.30;;;7.90;48.90;;;;;;5072209;28;20031;-76
2021/04/14 06:01:43;;;;;;;2.38;2.17;;;7.90;47.90;;;;;;5070598;28;20413;-76
2021/04/14 06:04:10;;;;;;;2.55;2.35;;;7.90;47.20;;;;;;5069748;28;20017;-76
2021/04/14 06:06:36;;;;;;;2.47;2.28;;;8.00;47.60;;;;;;5074227;28;20028;-76
2021/04/14 06:09:03;;;;;;;4.05;3.17;;;8.00;46.70;;;;;;5073603;28;20029;-76
2021/04/14 06:11:29;;;;;;;4.75;2.50;;;8.10;47.20;;;;;;5074557;28;20028;-76
2021/04/14 06:13:56;;;;;;;2.05;1.95;;;8.10;46.20;;;;;;5073354;28;20402;-76
2021/04/14 06:16:22;;;;;;;3.15;2.15;;;8.10;45.80;;;;;;5073689;28;20402;-75
2021/04/14 06:18:48;;;;;;;3.25;2.33;;;8.20;46.20;;;;;;5074694;28;20056;-76
2021/04/14 06:21:16;;;;;;;2.20;2.10;;;8.20;44.60;;;;;;5074283;28;20098;-76
2021/04/14 06:23:43;;;;;;;2.75;2.33;;;8.20;45.60;;;;;;5073437;28;20028;-76
2021/04/14 06:28:38;;;;;;;3.40;3.20;;;8.30;46.70;;;;;;5075032;28;20025;-76
2021/04/14 06:31:06;;;;;;;3.38;2.78;;;8.30;48.50;;;;;;5075386;28;20336;-76
2021/04/14 06:33:35;;;;;;;2.83;2.63;;;8.30;46.40;;;;;;5073863;28;20051;-76
2021/04/14 06:36:01;;;;;;;2.95;2.65;;;8.40;47.80;;;;;;5074787;28;21167;-77
2021/04/14 06:38:31;;;;;;;3.20;2.88;;;8.40;48.60;;;;;;5074714;28;20086;-76
2021/04/14 06:44:46;;;;;;;5.55;3.60;;;8.50;45.70;;;;;;5072600;28;20493;-76
2021/04/14 06:47:37;;;;;;;3.00;2.80;;;8.50;47.30;;;;;;5073737;28;20058;-76
2021/04/14 06:50:39;;;;;;;2.85;2.65;;;8.60;47.30;;;;;;5068915;28;20028;-76
2021/04/14 06:53:30;;;;;;;2.93;2.60;;;8.60;47.70;;;;;;5072950;28;20028;-76
2021/04/14 06:56:10;;;;;;;7.30;6.00;;;8.70;47.80;;;;;;5072224;28;20285;-76
2021/04/14 06:58:45;;;;;;;3.67;2.90;;;8.70;46.20;;;;;;5076009;28;20098;-76
2021/04/14 07:01:15;;;;;;;2.47;2.28;;;8.70;44.40;;;;;;5077805;28;20081;-76
2021/04/14 07:03:57;;;;;;;3.67;2.15;;;8.70;45.50;;;;;;5072267;28;20104;-77
2021/04/14 07:06:28;;;;;;;3.20;2.95;;;8.70;45.60;;;;;;5072733;28;20025;-76
2021/04/14 07:09:01;;;;;;;3.50;3.20;;;8.80;45.60;;;;;;5073170;28;20131;-76
2021/04/14 07:11:30;;;;;;;2.83;2.40;;;8.80;44.60;;;;;;5072731;28;20131;-76
2021/04/14 07:13:57;;;;;;;2.60;2.40;;;8.80;45.50;;;;;;5072217;28;20531;-76
2021/04/14 07:17:00;;;;;;;2.30;2.10;;;8.80;44.20;;;;;;5075340;28;20024;-76
2021/04/14 07:19:49;;;;;;;2.58;2.38;;;8.80;44.10;;;;;;5076030;28;20025;-74
2021/04/14 07:22:27;;;;;;;2.10;2.00;;;8.90;45.10;;;;;;5073425;28;20390;-74
2021/04/14 07:24:58;;;;;;;2.30;2.10;;;8.90;49.40;;;;;;5074663;28;20041;-74
2021/04/14 07:27:45;;;;;;;2.15;1.95;;;9.20;47.20;;;;;;5073700;28;20021;-74
2021/04/14 07:30:35;;;;;;;2.60;2.20;;;9.10;44.10;;;;;;5064638;28;20650;-74
2021/04/14 07:33:33;;;;;;;2.35;2.25;;;9.10;43.40;;;;;;5069746;28;20703;-74
2021/04/14 07:36:04;;;;;;;2.00;1.90;;;9.10;45.50;;;;;;5069145;28;20550;-74
2021/04/14 07:38:58;;;;;;;2.40;2.20;;;9.10;45.10;;;;;;5069290;28;20094;-74
2021/04/14 07:41:58;;;;;;;2.00;1.90;;;9.20;44.40;;;;;;5066221;28;20029;-74
2021/04/14 07:44:48;;;;;;;5.22;2.55;;;9.20;43.70;;;;;;5071719;28;20033;-79
2021/04/14 07:47:18;;;;;;;2.10;2.00;;;9.20;44.10;;;;;;5073634;28;20029;-79
2021/04/14 07:49:44;;;;;;;1.90;1.80;;;9.20;44.10;;;;;;5063391;28;20021;-78
2021/04/14 07:52:13;;;;;;;16.65;9.40;;;9.30;44.90;;;;;;5072630;28;20033;-78
2021/04/14 07:54:46;;;;;;;2.53;2.33;;;9.30;43.60;;;;;;5071151;28;20032;-78
2021/04/14 08:00:32;;;;;;;2.08;1.98;;;9.50;44.30;;;;;;5072327;28;20548;-78
2021/04/14 08:03:30;;;;;;;2.88;2.63;;;9.50;44.10;;;;;;5072523;28;20564;-79
2021/04/14 08:06:26;;;;;;;1.70;1.60;;;9.60;44.30;;;;;;5064947;28;20406;-79
2021/04/14 08:08:53;;;;;;;2.72;2.53;;;9.70;43.20;;;;;;5072351;28;20027;-78
2021/04/14 08:11:31;;;;;;;3.45;2.70;;;9.70;43.20;;;;;;5070959;28;20052;-78
2021/04/14 08:14:11;;;;;;;2.22;2.10;;;9.70;41.80;;;;;;5072618;28;20032;-78
2021/04/14 08:16:40;;;;;;;2.05;1.88;;;9.80;42.10;;;;;;5071418;28;20039;-79
2021/04/14 08:19:18;;;;;;;3.78;3.25;;;9.80;43.10;;;;;;5071181;28;20056;-79
2021/04/14 08:22:03;;;;;;;3.28;3.00;;;9.80;42.50;;;;;;5072686;28;20028;-78
2021/04/14 08:24:47;;;;;;;8.60;5.50;;;9.90;43.30;;;;;;5064911;28;20177;-79
2021/04/14 08:27:26;;;;;;;4.65;3.95;;;9.90;42.90;;;;;;5072137;28;20032;-79
2021/04/14 08:30:23;;;;;;;5.15;4.65;;;10.00;44.50;;;;;;5065689;28;20406;-78
2021/04/14 08:32:52;;;;;;;5.68;3.90;;;10.10;46.20;;;;;;5072794;28;20028;-79
2021/04/14 08:35:37;;;;;;;5.18;4.18;;;10.20;47.50;;;;;;5072766;28;20020;-79
2021/04/14 08:38:22;;;;;;;3.13;2.17;;;10.20;43.80;;;;;;5070925;28;20021;-79
2021/04/14 08:40:48;;;;;;;2.00;1.65;;;10.30;43.60;;;;;;5072403;28;20035;-79
2021/04/14 08:43:38;;;;;;;4.70;2.88;;;10.30;43.20;;;;;;5072052;28;20426;-78
2021/04/14 08:46:24;;;;;;;1.90;1.80;;;10.30;42.80;;;;;;5072466;28;20021;-79
2021/04/14 08:49:07;;;;;;;2.70;1.88;;;10.30;42.30;;;;;;5065483;28;20027;-79
2021/04/14 08:51:40;;;;;;;2.08;1.77;;;10.20;42.60;;;;;;5070816;28;20029;-78
2021/04/14 08:54:09;;;;;;;2.30;2.10;;;10.20;45.00;;;;;;5072344;28;20036;-78
2021/04/14 08:56:35;;;;;;;5.47;3.17;;;10.30;45.10;;;;;;5070937;28;20082;-78
2021/04/14 08:59:01;;;;;;;5.45;3.38;;;10.30;49.60;;;;;;5070977;28;20494;-79
2021/04/14 09:01:31;;;;;;;4.45;2.95;;;10.40;51.20;;;;;;5072134;28;20070;-79
2021/04/14 09:04:00;;;;;;;3.13;2.92;;;10.50;51.30;;;;;;5072238;28;20048;-78
2021/04/14 09:06:30;;;;;;;5.90;3.75;;;10.60;51.00;;;;;;5070923;28;20027;-79
2021/04/14 09:08:57;;;;;;;5.82;4.15;;;10.70;50.40;;;;;;5072164;28;20025;-78
2021/04/14 09:11:29;;;;;;;6.72;4.13;;;10.80;51.00;;;;;;5070845;28;20032;-79
2021/04/14 09:14:04;;;;;;;;;;;10.70;50.00;;;;;;5064647;28;20428;-79
2021/04/14 09:17:04;;;;;;;6.97;3.90;;;10.80;51.80;;;;;;5072326;28;19911;-79
2021/04/14 09:19:37;;;;;;;5.50;3.63;;;10.90;49.90;;;;;;5056357;28;20045;-79
2021/04/14 09:22:23;;;;;;;7.35;4.95;;;11.00;50.70;;;;;;5071922;28;20024;-79
2021/04/14 09:24:54;;;;;;;6.80;4.60;;;11.00;48.50;;;;;;5071793;28;20047;-78
2021/04/14 09:27:25;;;;;;;6.72;4.30;;;11.20;52.10;;;;;;5070922;28;20013;-79
2021/04/14 09:30:11;;;;;;;8.57;4.63;;;11.20;51.20;;;;;;5072305;28;20490;-78
2021/04/14 09:32:42;;;;;;;7.40;4.80;;;11.30;51.90;;;;;;5070464;28;20428;-78
2021/04/14 09:35:14;;;;;;;7.40;4.72;;;11.20;51.40;;;;;;5070834;28;20372;-78
2021/04/14 09:37:41;;;;;;;11.02;4.57;;;11.10;48.80;;;;;;5072049;28;20051;-79
2021/04/14 09:40:07;;;;;;;6.75;4.35;;;11.20;49.50;;;;;;5073469;28;20029;-78
2021/04/14 09:42:38;;;;;;;7.78;4.50;;;11.10;47.10;;;;;;5070130;28;20068;-78
2021/04/14 09:45:25;;;;;;;10.05;4.78;;;11.10;47.10;;;;;;5074240;28;20029;-79
2021/04/14 09:47:52;;;;;;;7.20;5.00;;;11.00;47.20;;;;;;5067274;28;20028;-79
2021/04/14 09:50:21;;;;;;;6.13;4.25;;;11.20;49.60;;;;;;5075788;28;20077;-78
2021/04/14 09:53:06;;;;;;;5.72;4.35;;;11.20;47.70;;;;;;5075736;28;20024;-79
2021/04/14 09:55:45;;;;;;;6.05;4.13;;;11.20;48.50;;;;;;5075782;28;20029;-78
2021/04/14 09:58:41;;;;;;;5.50;3.92;;;11.30;49.00;;;;;;5074222;28;20071;-78
2021/04/14 10:01:32;;;;;;;8.60;4.75;;;11.40;46.70;;;;;;5075397;28;20027;-79
2021/04/14 10:04:03;;;;;;;7.05;4.97;;;11.40;47.40;;;;;;5075294;28;20467;-79
2021/04/14 10:06:30;;;;;;;9.18;4.30;;;11.30;45.80;;;;;;5074080;28;20428;-78
2021/04/14 10:08:59;;;;;;;7.88;4.57;;;11.30;46.00;;;;;;5075422;28;20368;-79
2021/04/14 10:11:34;;;;;;;11.43;4.90;;;11.50;50.70;;;;;;5075489;28;20016;-79
2021/04/14 10:14:14;;;;;;;7.97;4.90;;;11.60;51.00;;;;;;5074906;28;20413;-79
2021/04/14 10:16:40;;;;;;;6.95;4.65;;;11.60;50.60;;;;;;5074035;28;20073;-79
2021/04/14 10:19:08;;;;;;;7.57;4.13;;;11.70;50.90;;;;;;5075351;28;20036;-79
2021/04/14 10:21:36;;;;;;;8.10;4.72;;;11.70;49.00;;;;;;5075020;28;20073;-78
2021/04/14 10:24:08;;;;;;;6.38;4.07;;;11.70;50.40;;;;;;5075238;28;20130;-79
2021/04/14 10:26:37;;;;;;;5.55;4.32;;;11.70;47.80;;;;;;5075075;28;20059;-78
2021/04/14 10:29:08;;;;;;;8.60;4.30;;;11.70;50.60;;;;;;5075190;28;20063;-79
2021/04/14 10:31:35;;;;;;;7.33;4.80;;;12.00;52.90;;;;;;5073780;28;20468;-79
2021/04/14 10:34:13;;;;;;;6.90;4.30;;;12.10;53.50;;;;;;5075095;28;20077;-78
2021/04/14 10:36:43;;;;;;;9.00;4.60;;;12.20;52.70;;;;;;5075227;28;20021;-78
2021/04/14 10:39:17;;;;;;;11.85;3.67;;;12.30;52.80;;;;;;5074669;28;20100;-79
2021/04/14 10:41:45;;;;;;;8.07;4.70;;;12.30;50.80;;;;;;5074691;28;20017;-78
2021/04/14 10:44:20;;;;;;;5.18;3.97;;;12.40;52.20;;;;;;5074842;28;20462;-79
2021/04/14 10:46:47;;;;;;;7.88;4.50;;;12.60;54.80;;;;;;5074855;28;20489;-78
2021/04/14 10:49:26;;;;;;;5.45;4.25;;;12.80;52.40;;;;;;5074830;28;20576;-79
2021/04/14 10:51:55;;;;;;;6.25;4.55;;;12.90;49.70;;;;;;5066465;28;20104;-79
2021/04/14 10:54:26;;;;;;;9.25;4.75;;;12.90;48.80;;;;;;5073644;28;20120;-79
2021/04/14 10:57:08;;;;;;;8.60;4.20;;;12.80;46.70;;;;;;5073214;28;20027;-79
2021/04/14 10:59:34;;;;;;;6.82;5.32;;;13.00;48.70;;;;;;5074712;28;20032;-79
2021/04/14 11:02:00;;;;;;;8.73;4.93;;;13.10;47.00;;;;;;5072713;28;20036;-79
2021/04/14 11:04:37;;;;;;;6.35;3.90;;;13.10;47.30;;;;;;5074456;28;20032;-79
2021/04/14 11:07:10;;;;;;;8.02;4.55;;;13.00;43.20;;;;;;5074498;28;20020;-78
2021/04/14 11:09:41;;;;;;;5.85;4.35;;;13.20;49.80;;;;;;5074186;28;20021;-79
2021/04/14 11:12:12;;;;;;;6.50;5.45;;;13.40;50.40;;;;;;5074137;28;20483;-79
2021/04/14 11:14:40;;;;;;;7.13;4.45;;;13.50;49.20;;;;;;5074270;28;20039;-78
2021/04/14 11:17:08;;;;;;;7.30;4.20;;;13.50;49.00;;;;;;5074149;28;20051;-79
2021/04/14 11:19:37;;;;;;;7.38;4.40;;;13.60;48.00;;;;;;5074077;28;20483;-79
2021/04/14 11:22:08;;;;;;;6.65;4.38;;;13.70;47.90;;;;;;5073783;28;20051;-79
2021/04/14 11:24:44;;;;;;;6.03;4.63;;;13.70;47.60;;;;;;5073667;28;20102;-79
2021/04/14 11:27:16;;;;;;;6.60;4.03;;;13.80;46.70;;;;;;5073998;28;20031;-78
2021/04/14 11:29:41;;;;;;;11.18;5.25;;;13.80;46.70;;;;;;5073420;28;20118;-78
2021/04/14 11:32:18;;;;;;;5.78;4.45;;;14.00;48.70;;;;;;5073271;28;20490;-78
2021/04/14 11:35:14;;;;;;;8.23;4.80;;;14.10;49.80;;;;;;5072716;28;20056;-79
2021/04/14 11:37:47;;;;;;;6.38;4.60;;;14.30;50.60;;;;;;5072159;28;20032;-79
2021/04/14 11:40:19;;;;;;;6.20;4.38;;;14.50;49.50;;;;;;5071815;28;20028;-78
2021/04/14 11:42:50;;;;;;;4.93;4.43;;;14.40;47.30;;;;;;5073162;28;20021;-78
2021/04/14 11:45:37;;;;;;;6.78;4.00;;;14.50;46.80;;;;;;5073385;28;20029;-78
2021/04/14 11:48:12;;;;;;;5.40;4.50;;;14.20;44.80;;;;;;5072418;28;20137;-78
2021/04/14 11:50:41;;;;;;;5.68;4.45;;;14.20;43.70;;;;;;5072008;28;20526;-78
2021/04/14 11:53:29;;;;;;;5.88;4.43;;;14.40;46.10;;;;;;5071193;28;20047;-78
2021/04/14 11:55:55;;;;;;;5.95;4.18;;;14.60;47.30;;;;;;5071586;28;20036;-78
2021/04/14 11:58:46;;;;;;;8.98;5.07;;;14.60;44.20;;;;;;5071694;28;20031;-78
2021/04/14 12:01:27;;;;;;;5.65;4.65;;;14.80;46.60;;;;;;5069417;28;20032;-78
2021/04/14 12:03:52;;;;;;;10.55;4.47;;;14.80;46.90;;;;;;5071439;28;20055;-78
2021/04/14 12:06:20;;;;;;;4.88;4.43;;;15.00;46.60;;;;;;5072577;28;20051;-78
2021/04/14 12:08:46;;;;;;;5.07;4.20;;;15.00;44.10;;;;;;5071887;28;20077;-78
2021/04/14 12:11:24;;;;;;;6.68;4.97;;;15.30;46.20;;;;;;5073165;28;20048;-78
2021/04/14 12:13:51;;;;;;;6.78;5.00;;;15.40;45.70;;;;;;5071752;28;20067;-78
2021/04/14 12:16:17;;;;;;;5.30;4.65;;;15.50;45.70;;;;;;5073148;28;20032;-77
2021/04/14 12:18:46;;;;;;;4.90;4.38;;;15.50;44.80;;;;;;5073127;28;20024;-78
2021/04/14 12:21:12;;;;;;;6.00;5.13;;;15.70;43.50;;;;;;5064262;28;20047;-78
2021/04/14 12:23:38;;;;;;;5.05;4.55;;;15.40;39.10;;;;;;5072717;28;20028;-78
2021/04/14 12:26:04;;;;;;;5.45;4.70;;;15.40;40.30;;;;;;5072785;28;20028;-78
2021/04/14 12:28:30;;;;;;;5.25;4.38;;;15.50;42.30;;;;;;5072696;28;20467;-77
2021/04/14 12:30:57;;;;;;;4.63;4.13;;;15.40;40.20;;;;;;5071626;28;20107;-78
2021/04/14 12:33:23;;;;;;;8.32;4.47;;;15.10;42.30;;;;;;5071681;28;20020;-77
2021/04/14 12:35:48;;;;;;;5.80;4.40;;;15.00;43.00;;;;;;5072691;28;20617;-77
2021/04/14 12:38:15;;;;;;;6.20;5.05;;;15.00;44.30;;;;;;5072772;28;20016;-78
2021/04/14 12:40:41;;;;;;;6.68;5.18;;;14.90;45.90;;;;;;5072519;28;20041;-78
2021/04/14 12:43:07;;;;;;;7.40;5.35;;;14.70;46.10;;;;;;5072464;28;20624;-78
2021/04/14 12:45:47;;;;;;;5.10;4.60;;;14.40;44.10;;;;;;5072733;28;20085;-77
2021/04/14 12:48:16;;;;;;;5.72;4.88;;;14.30;45.40;;;;;;5072587;28;20116;-78
2021/04/14 12:50:55;;;;;;;5.55;4.70;;;14.30;45.80;;;;;;5072396;28;20015;-77
2021/04/14 12:53:21;;;;;;;4.85;4.35;;;14.10;45.60;;;;;;5071166;28;20474;-78
2021/04/14 12:55:48;;;;;;;11.25;5.00;;;14.10;45.50;;;;;;5072259;28;20024;-78
2021/04/14 12:58:28;;;;;;;7.60;4.80;;;14.00;45.00;;;;;;5072638;28;20017;-77
2021/04/14 13:00:54;;;;;;;5.22;4.75;;;14.20;48.70;;;;;;5070844;28;20450;-78
2021/04/14 13:03:31;;;;;;;5.70;4.95;;;14.30;48.60;;;;;;5072578;28;20024;-78
2021/04/14 13:06:04;;;;;;;6.65;5.18;;;14.50;48.90;;;;;;5072611;28;20029;-78
2021/04/14 13:08:36;;;;;;;5.63;4.65;;;14.60;49.30;;;;;;5072330;28;20017;-78
2021/04/14 13:11:28;;;;;;;4.95;4.50;;;14.80;47.90;;;;;;5072392;28;20025;-78
2021/04/14 13:13:54;;;;;;;8.32;5.18;;;15.00;49.40;;;;;;5069928;28;20094;-78
2021/04/14 13:16:55;;;;;;;4.93;4.50;;;15.20;48.90;;;;;;5075979;28;20028;-78
2021/04/14 13:19:21;;;;;;;6.47;4.68;;;14.90;44.70;;;;;;5062975;28;20028;-78
2021/04/14 13:22:10;;;;;;;5.80;4.88;;;15.10;46.90;;;;;;5076404;28;20093;-77